sensor_id;sensor_type;location;lat;lon;timestamp;temperature;humidity
53264;DHT22;39153;52.680;6.172;2024-03-02T00:01:12;8.60;99.90
53264;DHT22;39153;52.680;6.172;2024-03-02T00:03:38;8.60;99.90
53264;DHT22;39153;52.680;6.172;2024-03-02T00:06:04;8.50;99.90
53264;DHT22;39153;52.680;6.172;2024-03-02T00:08:30;8.50;99.90
53264;DHT22;39153;52.680;6.172;2024-03-02T00:11:01;8.50;99.90
53264;DHT22;39153;52.680;6.172;2024-03-02T00:13:30;8.50;99.90
53264;DHT22;39153;52.680;6.172;2024-03-02T00:15:57;8.50;99.90
53264;DHT22;39153;52.680;6.172;2024-03-02T00:18:32;8.50;99.90
53264;DHT22;39153;52.680;6.172;2024-03-02T00:20:59;8.50;99.90
53264;DHT22;39153;52.680;6.172;2024-03-02T00:23:34;8.40;99.90
53264;DHT22;39153;52.680;6.172;2024-03-02T00:26:00;8.40;99.90
53264;DHT22;39153;52.680;6.172;2024-03-02T00:28:29;8.40;99.90
53264;DHT22;39153;52.680;6.172;2024-03-02T00:33:39;8.40;99.90
53264;DHT22;39153;52.680;6.172;2024-03-02T00:36:06;8.40;99.90
53264;DHT22;39153;52.680;6.172;2024-03-02T00:38:33;8.40;99.90
53264;DHT22;39153;52.680;6.172;2024-03-02T00:41:04;8.40;99.90
53264;DHT22;39153;52.680;6.172;2024-03-02T00:43:43;8.40;99.90
53264;DHT22;39153;52.680;6.172;2024-03-02T00:46:17;8.40;99.90
53264;DHT22;39153;52.680;6.172;2024-03-02T00:49:04;8.40;99.90
53264;DHT22;39153;52.680;6.172;2024-03-02T00:51:31;8.40;99.90
53264;DHT22;39153;52.680;6.172;2024-03-02T00:54:05;8.40;99.90
53264;DHT22;39153;52.680;6.172;2024-03-02T00:56:31;8.40;99.90
53264;DHT22;39153;52.680;6.172;2024-03-02T00:58:57;8.40;99.90
53264;DHT22;39153;52.680;6.172;2024-03-02T01:01:23;8.40;99.90
53264;DHT22;39153;52.680;6.172;2024-03-02T01:03:49;8.40;99.90
53264;DHT22;39153;52.680;6.172;2024-03-02T01:06:16;8.40;99.90
53264;DHT22;39153;52.680;6.172;2024-03-02T01:08:41;8.40;99.90
53264;DHT22;39153;52.680;6.172;2024-03-02T01:11:07;8.40;99.90
53264;DHT22;39153;52.680;6.172;2024-03-02T01:13:33;8.50;99.90
53264;DHT22;39153;52.680;6.172;2024-03-02T01:15:59;8.50;99.90
53264;DHT22;39153;52.680;6.172;2024-03-02T01:18:25;8.50;99.90
53264;DHT22;39153;52.680;6.172;2024-03-02T01:20:51;8.50;99.90
53264;DHT22;39153;52.680;6.172;2024-03-02T01:23:20;8.60;99.90
53264;DHT22;39153;52.680;6.172;2024-03-02T01:25:49;8.60;99.90
53264;DHT22;39153;52.680;6.172;2024-03-02T01:28:15;8.60;99.90
53264;DHT22;39153;52.680;6.172;2024-03-02T01:30:41;8.60;99.90
53264;DHT22;39153;52.680;6.172;2024-03-02T01:33:07;8.60;99.90
53264;DHT22;39153;52.680;6.172;2024-03-02T01:35:33;8.60;99.90
53264;DHT22;39153;52.680;6.172;2024-03-02T01:38:00;8.60;99.90
53264;DHT22;39153;52.680;6.172;2024-03-02T01:40:26;8.60;99.90
53264;DHT22;39153;52.680;6.172;2024-03-02T01:42:53;8.60;99.90
53264;DHT22;39153;52.680;6.172;2024-03-02T01:45:24;8.60;99.90
53264;DHT22;39153;52.680;6.172;2024-03-02T01:47:50;8.60;99.90
53264;DHT22;39153;52.680;6.172;2024-03-02T01:50:16;8.50;99.90
53264;DHT22;39153;52.680;6.172;2024-03-02T01:52:49;8.60;99.90
53264;DHT22;39153;52.680;6.172;2024-03-02T01:55:15;8.60;99.90
53264;DHT22;39153;52.680;6.172;2024-03-02T01:57:41;8.60;99.90
53264;DHT22;39153;52.680;6.172;2024-03-02T02:00:07;8.60;99.90
53264;DHT22;39153;52.680;6.172;2024-03-02T02:02:33;8.60;99.90
53264;DHT22;39153;52.680;6.172;2024-03-02T02:04:58;8.60;99.90
53264;DHT22;39153;52.680;6.172;2024-03-02T02:07:24;8.60;99.90
53264;DHT22;39153;52.680;6.172;2024-03-02T02:09:50;8.60;99.90
53264;DHT22;39153;52.680;6.172;2024-03-02T02:12:16;8.70;99.90
53264;DHT22;39153;52.680;6.172;2024-03-02T02:14:47;8.70;99.90
53264;DHT22;39153;52.680;6.172;2024-03-02T02:17:16;8.80;99.90
53264;DHT22;39153;52.680;6.172;2024-03-02T02:19:42;8.80;99.90
53264;DHT22;39153;52.680;6.172;2024-03-02T02:22:11;8.80;99.90
53264;DHT22;39153;52.680;6.172;2024-03-02T02:24:41;8.80;99.90
53264;DHT22;39153;52.680;6.172;2024-03-02T02:27:09;8.90;99.90
53264;DHT22;39153;52.680;6.172;2024-03-02T02:29:36;8.90;99.90
53264;DHT22;39153;52.680;6.172;2024-03-02T02:32:02;9.00;99.90
53264;DHT22;39153;52.680;6.172;2024-03-02T02:34:28;9.00;99.90
53264;DHT22;39153;52.680;6.172;2024-03-02T02:36:54;9.00;99.90
53264;DHT22;39153;52.680;6.172;2024-03-02T02:39:21;9.00;99.90
53264;DHT22;39153;52.680;6.172;2024-03-02T02:41:48;9.00;99.90
53264;DHT22;39153;52.680;6.172;2024-03-02T02:44:13;9.00;99.90
53264;DHT22;39153;52.680;6.172;2024-03-02T02:46:40;9.00;99.90
53264;DHT22;39153;52.680;6.172;2024-03-02T02:49:06;9.00;99.90
53264;DHT22;39153;52.680;6.172;2024-03-02T02:51:32;9.00;99.90
53264;DHT22;39153;52.680;6.172;2024-03-02T02:53:58;9.00;99.90
53264;DHT22;39153;52.680;6.172;2024-03-02T02:56:23;9.00;99.90
53264;DHT22;39153;52.680;6.172;2024-03-02T02:58:49;8.90;99.90
53264;DHT22;39153;52.680;6.172;2024-03-02T03:01:15;8.90;99.90
53264;DHT22;39153;52.680;6.172;2024-03-02T03:03:43;8.90;99.90
53264;DHT22;39153;52.680;6.172;2024-03-02T03:06:10;8.90;99.90
53264;DHT22;39153;52.680;6.172;2024-03-02T03:08:36;8.80;99.90
53264;DHT22;39153;52.680;6.172;2024-03-02T03:11:02;8.80;99.90
53264;DHT22;39153;52.680;6.172;2024-03-02T03:13:27;8.80;99.90
53264;DHT22;39153;52.680;6.172;2024-03-02T03:15:53;8.80;99.90
53264;DHT22;39153;52.680;6.172;2024-03-02T03:18:19;8.80;99.90
53264;DHT22;39153;52.680;6.172;2024-03-02T03:20:45;8.80;99.90
53264;DHT22;39153;52.680;6.172;2024-03-02T03:23:11;8.80;99.90
53264;DHT22;39153;52.680;6.172;2024-03-02T03:25:41;8.80;99.90
53264;DHT22;39153;52.680;6.172;2024-03-02T03:28:07;8.70;99.90
53264;DHT22;39153;52.680;6.172;2024-03-02T03:30:38;8.80;99.90
53264;DHT22;39153;52.680;6.172;2024-03-02T03:33:04;8.70;99.90
53264;DHT22;39153;52.680;6.172;2024-03-02T03:35:33;8.70;99.90
53264;DHT22;39153;52.680;6.172;2024-03-02T03:37:59;8.70;99.90
53264;DHT22;39153;52.680;6.172;2024-03-02T03:40:25;8.70;99.90
53264;DHT22;39153;52.680;6.172;2024-03-02T03:42:51;8.70;99.90
53264;DHT22;39153;52.680;6.172;2024-03-02T03:45:17;8.70;99.90
53264;DHT22;39153;52.680;6.172;2024-03-02T03:47:42;8.70;99.90
53264;DHT22;39153;52.680;6.172;2024-03-02T03:50:09;8.70;99.90
53264;DHT22;39153;52.680;6.172;2024-03-02T03:52:34;8.70;99.90
53264;DHT22;39153;52.680;6.172;2024-03-02T03:55:00;8.70;99.90
53264;DHT22;39153;52.680;6.172;2024-03-02T03:57:27;8.70;99.90
53264;DHT22;39153;52.680;6.172;2024-03-02T03:59:53;8.70;99.90
53264;DHT22;39153;52.680;6.172;2024-03-02T04:02:19;8.70;99.90
53264;DHT22;39153;52.680;6.172;2024-03-02T04:04:44;8.70;99.90
53264;DHT22;39153;52.680;6.172;2024-03-02T04:07:10;8.70;99.90
53264;DHT22;39153;52.680;6.172;2024-03-02T04:09:36;8.70;99.90
53264;DHT22;39153;52.680;6.172;2024-03-02T04:12:02;8.60;99.90
53264;DHT22;39153;52.680;6.172;2024-03-02T04:14:27;8.60;99.90
53264;DHT22;39153;52.680;6.172;2024-03-02T04:16:53;8.60;99.90
53264;DHT22;39153;52.680;6.172;2024-03-02T04:19:18;8.60;99.90
53264;DHT22;39153;52.680;6.172;2024-03-02T04:21:44;8.50;99.90
53264;DHT22;39153;52.680;6.172;2024-03-02T04:24:10;8.50;99.90
53264;DHT22;39153;52.680;6.172;2024-03-02T04:26:35;8.40;99.90
53264;DHT22;39153;52.680;6.172;2024-03-02T04:29:01;8.40;99.90
53264;DHT22;39153;52.680;6.172;2024-03-02T04:31:27;8.40;99.90
53264;DHT22;39153;52.680;6.172;2024-03-02T04:33:53;8.30;99.90
53264;DHT22;39153;52.680;6.172;2024-03-02T04:36:19;8.40;99.90
53264;DHT22;39153;52.680;6.172;2024-03-02T04:38:46;8.20;99.90
53264;DHT22;39153;52.680;6.172;2024-03-02T04:41:12;8.30;99.90
53264;DHT22;39153;52.680;6.172;2024-03-02T04:43:37;8.20;99.90
53264;DHT22;39153;52.680;6.172;2024-03-02T04:46:03;8.10;99.90
53264;DHT22;39153;52.680;6.172;2024-03-02T04:48:29;8.10;99.90
53264;DHT22;39153;52.680;6.172;2024-03-02T04:50:55;8.00;99.90
53264;DHT22;39153;52.680;6.172;2024-03-02T04:53:20;7.90;99.90
53264;DHT22;39153;52.680;6.172;2024-03-02T04:55:46;7.90;99.90
53264;DHT22;39153;52.680;6.172;2024-03-02T04:58:35;7.90;99.90
53264;DHT22;39153;52.680;6.172;2024-03-02T05:01:01;7.80;99.90
53264;DHT22;39153;52.680;6.172;2024-03-02T05:03:26;7.80;99.90
53264;DHT22;39153;52.680;6.172;2024-03-02T05:05:52;7.70;99.90
53264;DHT22;39153;52.680;6.172;2024-03-02T05:08:18;7.90;99.90
53264;DHT22;39153;52.680;6.172;2024-03-02T05:10:43;7.70;99.90
53264;DHT22;39153;52.680;6.172;2024-03-02T05:13:09;7.60;99.90
53264;DHT22;39153;52.680;6.172;2024-03-02T05:15:35;7.50;99.90
53264;DHT22;39153;52.680;6.172;2024-03-02T05:18:00;7.50;99.90
53264;DHT22;39153;52.680;6.172;2024-03-02T05:20:28;7.50;99.90
53264;DHT22;39153;52.680;6.172;2024-03-02T05:22:53;7.40;99.90
53264;DHT22;39153;52.680;6.172;2024-03-02T05:25:19;7.30;99.90
53264;DHT22;39153;52.680;6.172;2024-03-02T05:27:45;7.30;99.90
53264;DHT22;39153;52.680;6.172;2024-03-02T05:30:11;7.20;99.90
53264;DHT22;39153;52.680;6.172;2024-03-02T05:32:37;7.20;99.90
53264;DHT22;39153;52.680;6.172;2024-03-02T05:35:03;7.10;99.90
53264;DHT22;39153;52.680;6.172;2024-03-02T05:37:30;7.10;99.90
53264;DHT22;39153;52.680;6.172;2024-03-02T05:39:56;7.10;99.90
53264;DHT22;39153;52.680;6.172;2024-03-02T05:42:21;7.00;99.90
53264;DHT22;39153;52.680;6.172;2024-03-02T05:44:47;7.00;99.90
53264;DHT22;39153;52.680;6.172;2024-03-02T05:47:13;7.10;99.90
53264;DHT22;39153;52.680;6.172;2024-03-02T05:49:38;7.00;99.90
53264;DHT22;39153;52.680;6.172;2024-03-02T05:52:04;7.00;99.90
53264;DHT22;39153;52.680;6.172;2024-03-02T05:54:30;7.00;99.90
53264;DHT22;39153;52.680;6.172;2024-03-02T05:56:56;6.90;99.90
53264;DHT22;39153;52.680;6.172;2024-03-02T05:59:21;7.00;99.90
53264;DHT22;39153;52.680;6.172;2024-03-02T06:01:48;6.90;99.90
53264;DHT22;39153;52.680;6.172;2024-03-02T06:04:16;6.90;99.90
53264;DHT22;39153;52.680;6.172;2024-03-02T06:06:42;7.00;99.90
53264;DHT22;39153;52.680;6.172;2024-03-02T06:09:08;6.80;99.90
53264;DHT22;39153;52.680;6.172;2024-03-02T06:11:37;6.80;99.90
53264;DHT22;39153;52.680;6.172;2024-03-02T06:14:04;6.70;99.90
53264;DHT22;39153;52.680;6.172;2024-03-02T06:16:30;6.70;99.90
53264;DHT22;39153;52.680;6.172;2024-03-02T06:18:56;6.60;99.90
53264;DHT22;39153;52.680;6.172;2024-03-02T06:21:26;6.60;99.90
53264;DHT22;39153;52.680;6.172;2024-03-02T06:23:52;6.60;99.90
53264;DHT22;39153;52.680;6.172;2024-03-02T06:26:19;6.90;99.90
53264;DHT22;39153;52.680;6.172;2024-03-02T06:28:45;6.80;99.90
53264;DHT22;39153;52.680;6.172;2024-03-02T06:31:11;6.70;99.90
53264;DHT22;39153;52.680;6.172;2024-03-02T06:33:36;6.40;99.90
53264;DHT22;39153;52.680;6.172;2024-03-02T06:36:04;6.40;99.90
53264;DHT22;39153;52.680;6.172;2024-03-02T06:38:30;6.40;99.90
53264;DHT22;39153;52.680;6.172;2024-03-02T06:40:57;6.30;99.90
53264;DHT22;39153;52.680;6.172;2024-03-02T06:43:23;6.40;99.90
53264;DHT22;39153;52.680;6.172;2024-03-02T06:45:52;6.30;99.90
53264;DHT22;39153;52.680;6.172;2024-03-02T06:48:18;6.40;99.90
53264;DHT22;39153;52.680;6.172;2024-03-02T06:50:49;6.30;99.90
53264;DHT22;39153;52.680;6.172;2024-03-02T06:53:15;6.20;99.90
53264;DHT22;39153;52.680;6.172;2024-03-02T06:55:45;6.30;99.90
53264;DHT22;39153;52.680;6.172;2024-03-02T06:58:12;6.20;99.90
53264;DHT22;39153;52.680;6.172;2024-03-02T07:00:38;6.30;99.90
53264;DHT22;39153;52.680;6.172;2024-03-02T07:03:04;6.30;99.90
53264;DHT22;39153;52.680;6.172;2024-03-02T07:05:30;6.20;99.90
53264;DHT22;39153;52.680;6.172;2024-03-02T07:07:55;6.20;99.90
53264;DHT22;39153;52.680;6.172;2024-03-02T07:10:21;6.30;99.90
53264;DHT22;39153;52.680;6.172;2024-03-02T07:12:47;6.30;99.90
53264;DHT22;39153;52.680;6.172;2024-03-02T07:15:13;6.30;99.90
53264;DHT22;39153;52.680;6.172;2024-03-02T07:17:55;6.30;99.90
53264;DHT22;39153;52.680;6.172;2024-03-02T07:20:21;6.40;99.90
53264;DHT22;39153;52.680;6.172;2024-03-02T07:22:47;6.40;99.90
53264;DHT22;39153;52.680;6.172;2024-03-02T07:25:13;6.40;99.90
53264;DHT22;39153;52.680;6.172;2024-03-02T07:27:39;6.60;99.90
53264;DHT22;39153;52.680;6.172;2024-03-02T07:30:06;6.40;99.90
53264;DHT22;39153;52.680;6.172;2024-03-02T07:32:32;6.50;99.90
53264;DHT22;39153;52.680;6.172;2024-03-02T07:34:57;6.50;99.90
53264;DHT22;39153;52.680;6.172;2024-03-02T07:37:24;6.60;99.90
53264;DHT22;39153;52.680;6.172;2024-03-02T07:39:50;6.60;99.90
53264;DHT22;39153;52.680;6.172;2024-03-02T07:42:16;6.60;99.90
53264;DHT22;39153;52.680;6.172;2024-03-02T07:44:44;6.60;99.90
53264;DHT22;39153;52.680;6.172;2024-03-02T07:47:09;6.70;99.90
53264;DHT22;39153;52.680;6.172;2024-03-02T07:49:35;6.70;99.90
53264;DHT22;39153;52.680;6.172;2024-03-02T07:52:01;6.80;99.90
53264;DHT22;39153;52.680;6.172;2024-03-02T07:54:26;6.80;99.90
53264;DHT22;39153;52.680;6.172;2024-03-02T07:56:52;6.80;99.90
53264;DHT22;39153;52.680;6.172;2024-03-02T07:59:18;6.90;99.90
53264;DHT22;39153;52.680;6.172;2024-03-02T08:01:44;7.00;99.90
53264;DHT22;39153;52.680;6.172;2024-03-02T08:04:10;7.20;99.90
53264;DHT22;39153;52.680;6.172;2024-03-02T08:06:35;7.00;99.90
53264;DHT22;39153;52.680;6.172;2024-03-02T08:09:01;7.10;99.90
53264;DHT22;39153;52.680;6.172;2024-03-02T08:11:30;7.10;99.90
53264;DHT22;39153;52.680;6.172;2024-03-02T08:13:56;7.20;99.90
53264;DHT22;39153;52.680;6.172;2024-03-02T08:16:25;7.30;99.90
53264;DHT22;39153;52.680;6.172;2024-03-02T08:18:51;7.30;99.90
53264;DHT22;39153;52.680;6.172;2024-03-02T08:21:17;7.30;99.90
53264;DHT22;39153;52.680;6.172;2024-03-02T08:23:43;7.40;99.90
53264;DHT22;39153;52.680;6.172;2024-03-02T08:26:09;7.50;99.90
53264;DHT22;39153;52.680;6.172;2024-03-02T08:28:35;7.60;99.90
53264;DHT22;39153;52.680;6.172;2024-03-02T08:31:06;7.60;99.90
53264;DHT22;39153;52.680;6.172;2024-03-02T08:33:32;7.60;99.90
53264;DHT22;39153;52.680;6.172;2024-03-02T08:35:58;7.80;99.90
53264;DHT22;39153;52.680;6.172;2024-03-02T08:38:24;7.90;99.90
53264;DHT22;39153;52.680;6.172;2024-03-02T08:40:50;8.20;99.90
53264;DHT22;39153;52.680;6.172;2024-03-02T08:43:16;8.00;99.90
53264;DHT22;39153;52.680;6.172;2024-03-02T08:45:42;8.20;99.90
53264;DHT22;39153;52.680;6.172;2024-03-02T08:48:08;9.10;99.90
53264;DHT22;39153;52.680;6.172;2024-03-02T08:50:35;8.30;99.90
53264;DHT22;39153;52.680;6.172;2024-03-02T08:53:00;8.30;99.90
53264;DHT22;39153;52.680;6.172;2024-03-02T08:55:26;8.30;99.90
53264;DHT22;39153;52.680;6.172;2024-03-02T08:57:52;8.20;99.90
53264;DHT22;39153;52.680;6.172;2024-03-02T09:00:18;8.20;99.90
53264;DHT22;39153;52.680;6.172;2024-03-02T09:02:44;8.20;99.90
53264;DHT22;39153;52.680;6.172;2024-03-02T09:05:10;8.30;99.90
53264;DHT22;39153;52.680;6.172;2024-03-02T09:07:36;8.30;99.90
53264;DHT22;39153;52.680;6.172;2024-03-02T09:10:08;8.40;99.90
53264;DHT22;39153;52.680;6.172;2024-03-02T09:12:34;8.40;99.90
53264;DHT22;39153;52.680;6.172;2024-03-02T09:15:01;8.50;99.90
53264;DHT22;39153;52.680;6.172;2024-03-02T09:17:28;8.60;99.90
53264;DHT22;39153;52.680;6.172;2024-03-02T09:19:57;8.70;99.90
53264;DHT22;39153;52.680;6.172;2024-03-02T09:22:23;8.80;99.90
53264;DHT22;39153;52.680;6.172;2024-03-02T09:24:48;8.90;99.90
53264;DHT22;39153;52.680;6.172;2024-03-02T09:27:14;9.00;99.90
53264;DHT22;39153;52.680;6.172;2024-03-02T09:29:40;9.10;99.90
53264;DHT22;39153;52.680;6.172;2024-03-02T09:32:07;9.10;99.90
53264;DHT22;39153;52.680;6.172;2024-03-02T09:34:32;9.30;99.90
53264;DHT22;39153;52.680;6.172;2024-03-02T09:36:58;9.40;99.90
53264;DHT22;39153;52.680;6.172;2024-03-02T09:39:24;9.40;99.90
53264;DHT22;39153;52.680;6.172;2024-03-02T09:41:53;9.50;99.90
53264;DHT22;39153;52.680;6.172;2024-03-02T09:44:19;9.40;99.90
53264;DHT22;39153;52.680;6.172;2024-03-02T09:46:49;9.40;99.90
53264;DHT22;39153;52.680;6.172;2024-03-02T09:49:15;9.50;99.90
53264;DHT22;39153;52.680;6.172;2024-03-02T09:51:40;9.50;99.90
53264;DHT22;39153;52.680;6.172;2024-03-02T09:54:11;9.50;99.90
53264;DHT22;39153;52.680;6.172;2024-03-02T09:56:36;9.70;99.90
53264;DHT22;39153;52.680;6.172;2024-03-02T09:59:02;9.70;99.90
53264;DHT22;39153;52.680;6.172;2024-03-02T10:01:28;9.80;99.90
53264;DHT22;39153;52.680;6.172;2024-03-02T10:03:54;9.90;99.90
53264;DHT22;39153;52.680;6.172;2024-03-02T10:06:27;10.00;99.90
53264;DHT22;39153;52.680;6.172;2024-03-02T10:08:54;10.00;99.90
53264;DHT22;39153;52.680;6.172;2024-03-02T10:11:34;10.10;99.90
53264;DHT22;39153;52.680;6.172;2024-03-02T10:14:09;10.20;99.90
53264;DHT22;39153;52.680;6.172;2024-03-02T10:16:44;10.30;99.90
53264;DHT22;39153;52.680;6.172;2024-03-02T10:19:28;10.30;99.90
53264;DHT22;39153;52.680;6.172;2024-03-02T10:21:58;10.30;99.90
53264;DHT22;39153;52.680;6.172;2024-03-02T10:24:24;10.40;99.90
53264;DHT22;39153;52.680;6.172;2024-03-02T10:26:51;10.40;99.90
53264;DHT22;39153;52.680;6.172;2024-03-02T10:29:17;10.40;99.90
53264;DHT22;39153;52.680;6.172;2024-03-02T10:31:46;10.40;99.90
53264;DHT22;39153;52.680;6.172;2024-03-02T10:34:13;10.50;99.90
53264;DHT22;39153;52.680;6.172;2024-03-02T10:36:43;10.60;99.90
53264;DHT22;39153;52.680;6.172;2024-03-02T10:39:10;10.80;99.90
53264;DHT22;39153;52.680;6.172;2024-03-02T10:41:38;10.90;99.90
53264;DHT22;39153;52.680;6.172;2024-03-02T10:44:06;11.00;99.90
53264;DHT22;39153;52.680;6.172;2024-03-02T10:46:33;11.30;99.90
53264;DHT22;39153;52.680;6.172;2024-03-02T10:49:00;11.30;99.90
53264;DHT22;39153;52.680;6.172;2024-03-02T10:51:27;11.40;99.90
53264;DHT22;39153;52.680;6.172;2024-03-02T10:53:55;11.60;99.90
53264;DHT22;39153;52.680;6.172;2024-03-02T10:56:42;11.70;99.90
53264;DHT22;39153;52.680;6.172;2024-03-02T11:01:58;11.80;99.90
53264;DHT22;39153;52.680;6.172;2024-03-02T11:04:26;11.90;99.90
53264;DHT22;39153;52.680;6.172;2024-03-02T11:06:56;12.00;99.90
53264;DHT22;39153;52.680;6.172;2024-03-02T11:09:26;12.10;99.90
53264;DHT22;39153;52.680;6.172;2024-03-02T11:14:41;12.10;99.90
53264;DHT22;39153;52.680;6.172;2024-03-02T11:17:14;12.10;99.90
53264;DHT22;39153;52.680;6.172;2024-03-02T11:19:44;12.10;99.90
53264;DHT22;39153;52.680;6.172;2024-03-02T11:22:11;12.10;99.90
53264;DHT22;39153;52.680;6.172;2024-03-02T11:24:37;12.20;99.90
53264;DHT22;39153;52.680;6.172;2024-03-02T11:27:07;12.20;99.90
53264;DHT22;39153;52.680;6.172;2024-03-02T11:32:22;12.40;99.90
53264;DHT22;39153;52.680;6.172;2024-03-02T11:34:50;12.40;99.90
53264;DHT22;39153;52.680;6.172;2024-03-02T11:37:20;12.50;99.90
53264;DHT22;39153;52.680;6.172;2024-03-02T11:39:47;12.70;99.90
53264;DHT22;39153;52.680;6.172;2024-03-02T11:42:15;12.80;99.90
53264;DHT22;39153;52.680;6.172;2024-03-02T11:44:43;13.00;99.90
53264;DHT22;39153;52.680;6.172;2024-03-02T11:47:12;13.10;99.90
53264;DHT22;39153;52.680;6.172;2024-03-02T11:49:50;13.30;99.90
53264;DHT22;39153;52.680;6.172;2024-03-02T11:52:20;13.40;99.90
53264;DHT22;39153;52.680;6.172;2024-03-02T11:54:48;13.50;99.90
53264;DHT22;39153;52.680;6.172;2024-03-02T11:57:19;13.60;99.90
53264;DHT22;39153;52.680;6.172;2024-03-02T11:59:46;14.10;99.90
53264;DHT22;39153;52.680;6.172;2024-03-02T12:02:30;13.70;99.90
53264;DHT22;39153;52.680;6.172;2024-03-02T12:04:56;13.80;99.90
53264;DHT22;39153;52.680;6.172;2024-03-02T12:07:23;13.80;99.90
53264;DHT22;39153;52.680;6.172;2024-03-02T12:09:49;14.00;99.90
53264;DHT22;39153;52.680;6.172;2024-03-02T12:12:24;14.00;99.90
53264;DHT22;39153;52.680;6.172;2024-03-02T12:14:53;14.10;99.90
53264;DHT22;39153;52.680;6.172;2024-03-02T12:17:22;14.20;99.90
53264;DHT22;39153;52.680;6.172;2024-03-02T12:19:48;14.20;99.90
53264;DHT22;39153;52.680;6.172;2024-03-02T12:22:14;14.40;99.90
53264;DHT22;39153;52.680;6.172;2024-03-02T12:24:42;14.50;99.90
53264;DHT22;39153;52.680;6.172;2024-03-02T12:27:11;14.60;99.90
53264;DHT22;39153;52.680;6.172;2024-03-02T12:29:37;14.70;99.90
53264;DHT22;39153;52.680;6.172;2024-03-02T12:32:04;14.70;99.90
53264;DHT22;39153;52.680;6.172;2024-03-02T12:34:31;14.80;99.90
53264;DHT22;39153;52.680;6.172;2024-03-02T12:36:56;15.00;99.90
53264;DHT22;39153;52.680;6.172;2024-03-02T12:39:22;15.00;99.90
53264;DHT22;39153;52.680;6.172;2024-03-02T12:41:49;15.10;99.90
53264;DHT22;39153;52.680;6.172;2024-03-02T12:44:19;15.10;99.90
53264;DHT22;39153;52.680;6.172;2024-03-02T12:46:46;15.10;99.90
53264;DHT22;39153;52.680;6.172;2024-03-02T12:49:13;15.10;99.90
53264;DHT22;39153;52.680;6.172;2024-03-02T12:51:41;15.10;99.90
53264;DHT22;39153;52.680;6.172;2024-03-02T12:54:11;15.10;99.90
53264;DHT22;39153;52.680;6.172;2024-03-02T12:56:41;15.20;99.90
53264;DHT22;39153;52.680;6.172;2024-03-02T12:59:18;15.30;99.90
53264;DHT22;39153;52.680;6.172;2024-03-02T13:01:51;15.40;99.90
53264;DHT22;39153;52.680;6.172;2024-03-02T13:04:23;15.50;99.90
53264;DHT22;39153;52.680;6.172;2024-03-02T13:06:49;15.60;99.90
53264;DHT22;39153;52.680;6.172;2024-03-02T13:09:15;15.70;99.90
53264;DHT22;39153;52.680;6.172;2024-03-02T13:11:42;15.80;99.90
53264;DHT22;39153;52.680;6.172;2024-03-02T13:14:08;15.80;99.90
53264;DHT22;39153;52.680;6.172;2024-03-02T13:16:41;15.80;99.90
53264;DHT22;39153;52.680;6.172;2024-03-02T13:19:14;15.80;99.90
53264;DHT22;39153;52.680;6.172;2024-03-02T13:21:39;15.80;99.90
53264;DHT22;39153;52.680;6.172;2024-03-02T13:24:05;15.80;99.90
53264;DHT22;39153;52.680;6.172;2024-03-02T13:26:32;15.90;99.90
53264;DHT22;39153;52.680;6.172;2024-03-02T13:28:57;16.00;99.90
53264;DHT22;39153;52.680;6.172;2024-03-02T13:31:23;16.00;99.90
53264;DHT22;39153;52.680;6.172;2024-03-02T13:33:49;15.80;99.90
53264;DHT22;39153;52.680;6.172;2024-03-02T13:36:14;15.50;99.90
53264;DHT22;39153;52.680;6.172;2024-03-02T13:38:40;15.20;99.90
53264;DHT22;39153;52.680;6.172;2024-03-02T13:41:06;15.00;99.90
53264;DHT22;39153;52.680;6.172;2024-03-02T13:43:31;14.70;99.90
53264;DHT22;39153;52.680;6.172;2024-03-02T13:46:01;14.60;99.90
53264;DHT22;39153;52.680;6.172;2024-03-02T13:48:27;14.60;99.90
53264;DHT22;39153;52.680;6.172;2024-03-02T13:50:53;14.60;99.90
53264;DHT22;39153;52.680;6.172;2024-03-02T13:53:19;14.70;99.90
53264;DHT22;39153;52.680;6.172;2024-03-02T13:55:45;14.90;99.90
53264;DHT22;39153;52.680;6.172;2024-03-02T13:58:11;15.10;99.90
53264;DHT22;39153;52.680;6.172;2024-03-02T14:00:37;15.10;99.90
53264;DHT22;39153;52.680;6.172;2024-03-02T14:03:06;15.20;99.90
53264;DHT22;39153;52.680;6.172;2024-03-02T14:05:32;15.10;99.90
53264;DHT22;39153;52.680;6.172;2024-03-02T14:07:58;15.20;99.90
53264;DHT22;39153;52.680;6.172;2024-03-02T14:10:27;15.40;99.90
53264;DHT22;39153;52.680;6.172;2024-03-02T14:12:53;15.50;99.90
53264;DHT22;39153;52.680;6.172;2024-03-02T14:15:21;15.70;99.90
53264;DHT22;39153;52.680;6.172;2024-03-02T14:17:46;15.80;99.90
53264;DHT22;39153;52.680;6.172;2024-03-02T14:20:12;16.00;99.90
53264;DHT22;39153;52.680;6.172;2024-03-02T14:22:39;16.20;99.90
53264;DHT22;39153;52.680;6.172;2024-03-02T14:25:05;16.40;99.90
53264;DHT22;39153;52.680;6.172;2024-03-02T14:27:31;16.40;99.90
53264;DHT22;39153;52.680;6.172;2024-03-02T14:29:56;16.40;99.90
53264;DHT22;39153;52.680;6.172;2024-03-02T14:32:22;16.30;99.90
53264;DHT22;39153;52.680;6.172;2024-03-02T14:34:47;16.00;99.90
53264;DHT22;39153;52.680;6.172;2024-03-02T14:37:14;15.80;99.90
53264;DHT22;39153;52.680;6.172;2024-03-02T14:39:40;15.60;99.90
53264;DHT22;39153;52.680;6.172;2024-03-02T14:42:06;15.40;99.90
53264;DHT22;39153;52.680;6.172;2024-03-02T14:44:33;15.20;99.90
53264;DHT22;39153;52.680;6.172;2024-03-02T14:47:02;15.10;99.90
53264;DHT22;39153;52.680;6.172;2024-03-02T14:49:30;15.10;99.90
53264;DHT22;39153;52.680;6.172;2024-03-02T14:51:55;14.90;99.90
53264;DHT22;39153;52.680;6.172;2024-03-02T14:54:21;14.90;99.90
53264;DHT22;39153;52.680;6.172;2024-03-02T14:56:47;14.80;99.90
53264;DHT22;39153;52.680;6.172;2024-03-02T14:59:13;14.80;99.90
53264;DHT22;39153;52.680;6.172;2024-03-02T15:01:39;14.80;99.90
53264;DHT22;39153;52.680;6.172;2024-03-02T15:04:05;14.70;99.90
53264;DHT22;39153;52.680;6.172;2024-03-02T15:06:30;14.70;99.90
53264;DHT22;39153;52.680;6.172;2024-03-02T15:08:56;14.50;99.90
53264;DHT22;39153;52.680;6.172;2024-03-02T15:11:22;14.50;99.90
53264;DHT22;39153;52.680;6.172;2024-03-02T15:13:48;14.50;99.90
53264;DHT22;39153;52.680;6.172;2024-03-02T15:16:14;14.40;99.90
53264;DHT22;39153;52.680;6.172;2024-03-02T15:18:40;14.40;99.90
53264;DHT22;39153;52.680;6.172;2024-03-02T15:21:05;14.40;99.90
53264;DHT22;39153;52.680;6.172;2024-03-02T15:23:31;14.30;99.90
53264;DHT22;39153;52.680;6.172;2024-03-02T15:25:57;14.30;99.90
53264;DHT22;39153;52.680;6.172;2024-03-02T15:28:22;14.30;99.90
53264;DHT22;39153;52.680;6.172;2024-03-02T15:30:48;14.30;99.90
53264;DHT22;39153;52.680;6.172;2024-03-02T15:33:14;14.30;99.90
53264;DHT22;39153;52.680;6.172;2024-03-02T15:35:39;14.30;99.90
53264;DHT22;39153;52.680;6.172;2024-03-02T15:38:05;14.30;99.90
53264;DHT22;39153;52.680;6.172;2024-03-02T15:40:31;14.40;99.90
53264;DHT22;39153;52.680;6.172;2024-03-02T15:42:57;14.30;99.90
53264;DHT22;39153;52.680;6.172;2024-03-02T15:45:22;14.30;99.90
53264;DHT22;39153;52.680;6.172;2024-03-02T15:47:48;14.30;99.90
53264;DHT22;39153;52.680;6.172;2024-03-02T15:50:14;14.20;99.90